Butterfly, Kentucky
Current Conditions -  °F | °C
As of 4:53 PM on Monday 20 Oct 2014 (Local Time) from KJKL Reporting Station
Overcast Overcast  
Wind Chill: 56°   Ceiling: 9500
Heat Index: 56°   Visibility: 10mi
Dew Point: 48°   Wind: 3mph
Humidity: 75%   Direction: NA
Pressure: 29.96"   Gusts: NA
Location:  37.3117°N, 83.2191°W
Report Text: KJKL 202053Z AUTO VRB03KT 10SM OVC095 13/09 A2996 RMK AO2 SLP143 60000 T01330089 58011
Loading
Personal Weather Stations






























Interactive Weather Map
Tropical Storm Tracking
New forecast layout! Learn more

10-Day Weather Forecast

Advertisements
Track Severe Weather on mobile